Huntington, WV

12:14 PM EDT on August 04, 2015 (GMT -0400)
APRSWXNET | | Change Station
CLOSE
Current Station
Personal Weather Station
Location: Huntington, WV
Elevation: 540 ft
Nearby Weather Stations

Elev 540 ft 38.40 °N, 82.52 °W | Updated 34 days ago

Mostly Cloudy
Mostly Cloudy
84 °F
Feels Like 87 °F
N
5
Wind Variable Wind from West
Gusts mph

Today
High -- | Low -- °F
--% Chance of Precip.
Yesterday
High -- | Low -- °F
Precip. -- in
6:34 AM 8:37 PM
Waning Gibbous, 76% visible
Pressure 29.98 in
Visibility 10.0 miles
Clouds Clear
Heat Index 87 °F
Dew Point 68 °F
Humidity 59%
Rainfall in
Snow Depth Not available.
UV 9 out of 12
Pollen 4.40 out of 12
Air Quality Not available.
Flu Activity Not available.
METAR KHTS 041551Z VRB03KT 10SM CLR 26/20 A3000 RMK AO2 SLP152 T02610200

More Conditions Fewer Conditions

Pressure 29.98 in
Visibility 10.0 miles
Clouds Clear
Heat Index 87 °F
Dew Point 68 °F
Humidity 59%
Rainfall in
Snow Depth Not available.
UV 9 out of 12
Pollen 4.40 out of 12
Air Quality Not available.
Flu Activity Not available.
METAR KHTS 041551Z VRB03KT 10SM CLR 26/20 A3000 RMK AO2 SLP152 T02610200

More Conditions Fewer Conditions

10-Day Weather Forecast

×

Almanac

Astronomy

Aug. 04, 2015 Rise Set
Actual Time
Civil Twilight
Nautical Twilight
Astronomical Twilight
Moon
Length of Visible Light
Length of Day
Tomorrow will be .
, % of the Moon is Illuminated

Today's Extremes

State Highs State Lows

Community

WunderPhotos

Upload Photos

1,843,913 photos uploaded!

WunderBlogs® & News

Nearby

Air Quality

  Air Quality AQ Index Pollutant
Not available.

Snow Depth

Station Depth Elevation

Earthquake Activity

City Distance Mag. Time & Date
Minimum magnitude displayed is 2.5.

Coastal Water Temperatures

Place Temperature

Stations

Nearby Weather Stations

Station Location Temp. Windchill Dew Point Humidity Wind Precip. Elev Updated Type